createdAt,value
2022-11-16T00:02:12.058Z,18.43
2022-11-16T00:04:40.419Z,18.80
2022-11-16T00:07:10.440Z,19.30
2022-11-16T00:09:40.242Z,19.57
2022-11-16T00:12:11.311Z,20.10
2022-11-16T00:14:39.378Z,19.20
2022-11-16T00:17:07.381Z,19.50
2022-11-16T00:19:35.463Z,19.73
2022-11-16T00:22:03.539Z,20.77
2022-11-16T00:24:32.943Z,20.40
2022-11-16T00:27:00.884Z,20.87
2022-11-16T00:29:28.901Z,20.90
2022-11-16T00:31:56.960Z,20.80
2022-11-16T00:34:25.871Z,20.83
2022-11-16T00:36:53.820Z,21.23
2022-11-16T00:39:22.322Z,22.57
2022-11-16T00:41:51.907Z,22.13
2022-11-16T00:44:19.900Z,22.27
2022-11-16T00:46:47.963Z,23.53
2022-11-16T00:49:16.205Z,23.20
2022-11-16T00:51:44.299Z,23.13
2022-11-16T00:54:12.327Z,22.40
2022-11-16T00:56:40.940Z,24.70
2022-11-16T00:59:10.318Z,23.53
2022-11-16T01:01:38.440Z,23.27
2022-11-16T01:04:06.477Z,24.00
2022-11-16T01:06:34.439Z,24.73
2022-11-16T01:09:02.553Z,25.20
2022-11-16T01:11:48.281Z,24.53
2022-11-16T01:14:17.683Z,24.63
2022-11-16T01:16:45.725Z,24.67
2022-11-16T01:19:13.682Z,24.10
2022-11-16T01:21:41.681Z,24.93
2022-11-16T01:24:09.757Z,23.77
2022-11-16T01:26:37.736Z,25.80
2022-11-16T01:29:05.812Z,24.60
2022-11-16T01:31:35.158Z,24.50
2022-11-16T01:34:03.459Z,24.93
2022-11-16T01:36:31.736Z,25.27
2022-11-16T01:38:59.746Z,25.27
2022-11-16T01:41:27.954Z,24.93
2022-11-16T01:44:01.631Z,25.30
2022-11-16T01:46:31.336Z,25.40
2022-11-16T01:49:04.614Z,25.57
2022-11-16T01:51:33.028Z,26.73
2022-11-16T01:54:02.571Z,24.87
2022-11-16T01:56:33.975Z,23.87
2022-11-16T01:59:02.037Z,25.23
2022-11-16T02:01:30.199Z,25.43
2022-11-16T02:03:58.231Z,25.80
2022-11-16T02:06:50.224Z,24.17
2022-11-16T02:09:55.907Z,23.63
2022-11-16T02:12:39.072Z,24.93
2022-11-16T02:15:19.265Z,24.40
2022-11-16T02:17:54.433Z,25.30
2022-11-16T02:20:46.542Z,24.47
2022-11-16T02:23:45.866Z,25.60
2022-11-16T02:26:40.519Z,24.83
2022-11-16T02:29:21.536Z,25.20
2022-11-16T02:31:57.195Z,24.03
2022-11-16T02:34:28.022Z,26.20
2022-11-16T02:36:58.219Z,26.00
2022-11-16T02:39:28.167Z,24.97
2022-11-16T02:41:58.072Z,25.20
2022-11-16T02:44:31.993Z,26.50
2022-11-16T02:47:05.021Z,26.73
2022-11-16T02:49:35.926Z,25.93
2022-11-16T02:52:04.119Z,25.07
2022-11-16T02:54:32.343Z,26.50
2022-11-16T02:57:27.425Z,28.17
2022-11-16T02:59:59.642Z,25.07
2022-11-16T03:02:32.762Z,26.80
2022-11-16T03:05:05.930Z,25.93
2022-11-16T03:07:39.626Z,27.40
2022-11-16T03:10:08.664Z,26.23
2022-11-16T03:12:38.536Z,27.90
2022-11-16T03:15:12.822Z,26.40
2022-11-16T03:17:43.517Z,26.70
2022-11-16T03:20:15.758Z,26.03
2022-11-16T03:22:46.242Z,27.33
2022-11-16T03:25:17.624Z,27.37
2022-11-16T03:27:51.003Z,26.77
2022-11-16T03:30:23.996Z,26.03
2022-11-16T03:32:57.911Z,25.90
2022-11-16T03:35:31.225Z,26.50
2022-11-16T03:38:00.740Z,25.17
2022-11-16T03:40:32.174Z,26.23
2022-11-16T03:43:02.168Z,27.30
2022-11-16T03:45:32.381Z,26.30
2022-11-16T03:48:01.644Z,26.70
2022-11-16T03:50:29.750Z,27.50
2022-11-16T03:52:57.725Z,26.80
2022-11-16T03:55:25.880Z,27.10
2022-11-16T03:57:53.901Z,27.47
2022-11-16T04:00:21.946Z,27.17
2022-11-16T04:02:51.439Z,25.70
2022-11-16T04:05:36.754Z,26.70
2022-11-16T04:08:22.628Z,25.53
2022-11-16T04:11:07.820Z,25.77
2022-11-16T04:13:54.197Z,24.47
2022-11-16T04:16:39.784Z,25.83
2022-11-16T04:19:27.400Z,26.00
2022-11-16T04:22:19.252Z,24.40
2022-11-16T04:24:51.751Z,24.67
2022-11-16T04:27:42.876Z,24.47
2022-11-16T04:30:12.583Z,25.07
2022-11-16T04:32:58.468Z,25.13
2022-11-16T04:35:41.698Z,24.07
2022-11-16T04:38:09.719Z,25.07
2022-11-16T04:40:37.875Z,24.53
2022-11-16T04:43:05.850Z,24.37
2022-11-16T04:45:51.431Z,24.17
2022-11-16T04:48:21.072Z,25.83
2022-11-16T04:50:50.458Z,24.47
2022-11-16T04:53:18.519Z,25.43
2022-11-16T04:55:46.567Z,25.97
2022-11-16T04:58:14.566Z,24.53
2022-11-16T05:00:42.628Z,25.10
2022-11-16T05:03:10.635Z,25.97
2022-11-16T05:05:38.621Z,26.57
2022-11-16T05:08:09.325Z,23.93
2022-11-16T05:10:37.482Z,24.97
2022-11-16T05:13:05.490Z,25.67
2022-11-16T05:15:33.480Z,26.20
2022-11-16T05:18:01.500Z,26.97
2022-11-16T05:20:46.863Z,25.20
2022-11-16T05:23:30.124Z,26.63
2022-11-16T05:25:58.110Z,27.23
2022-11-16T05:28:26.164Z,25.93
2022-11-16T05:30:54.184Z,26.93
2022-11-16T05:33:22.222Z,26.80
2022-11-16T05:35:51.499Z,27.00
2022-11-16T05:38:20.943Z,27.17
2022-11-16T05:40:48.921Z,27.40
2022-11-16T05:43:16.918Z,27.93
2022-11-16T05:45:44.987Z,27.07
2022-11-16T05:48:12.982Z,26.77
2022-11-16T05:50:42.943Z,26.23
2022-11-16T05:53:11.315Z,26.90
2022-11-16T05:55:40.706Z,27.10
2022-11-16T05:58:08.717Z,26.43
2022-11-16T06:00:36.754Z,27.20
2022-11-16T06:03:04.913Z,26.57
2022-11-16T06:05:40.029Z,26.40
2022-11-16T06:08:08.587Z,26.57
2022-11-16T06:10:36.904Z,27.20
2022-11-16T06:13:06.410Z,25.13
2022-11-16T06:15:38.136Z,24.87
2022-11-16T06:18:06.557Z,26.53
2022-11-16T06:20:35.258Z,26.40
2022-11-16T06:23:04.461Z,26.70
2022-11-16T06:25:32.781Z,26.87
2022-11-16T06:28:05.291Z,26.33
2022-11-16T06:30:38.094Z,25.93
2022-11-16T06:33:06.227Z,27.90
2022-11-16T06:35:34.461Z,25.57
2022-11-16T06:38:02.553Z,25.87
2022-11-16T06:40:30.541Z,25.83
2022-11-16T06:42:58.554Z,24.30
2022-11-16T06:45:26.899Z,27.17
2022-11-16T06:47:56.354Z,25.63
2022-11-16T06:50:24.405Z,25.57
2022-11-16T06:52:52.430Z,25.03
2022-11-16T06:55:20.476Z,25.83
2022-11-16T06:57:48.494Z,24.97
2022-11-16T07:00:17.689Z,25.70
2022-11-16T07:02:45.853Z,26.63
2022-11-16T07:05:15.411Z,25.77
2022-11-16T07:07:43.451Z,26.17
2022-11-16T07:10:11.829Z,25.67
2022-11-16T07:12:44.808Z,25.20
2022-11-16T07:15:14.351Z,23.87
2022-11-16T07:17:44.475Z,25.83
2022-11-16T07:20:14.712Z,23.70
2022-11-16T07:22:46.006Z,25.40
2022-11-16T07:25:15.412Z,24.47
2022-11-16T07:27:43.969Z,24.23
2022-11-16T07:30:19.405Z,25.27
2022-11-16T07:32:48.824Z,24.50
2022-11-16T07:35:24.465Z,23.27
2022-11-16T07:37:55.981Z,24.83
2022-11-16T07:40:26.185Z,24.13
2022-11-16T07:43:05.405Z,25.43
2022-11-16T07:45:35.872Z,24.90
2022-11-16T07:48:06.148Z,25.43
2022-11-16T07:50:35.787Z,25.60
2022-11-16T07:53:11.602Z,24.90
2022-11-16T07:55:41.321Z,24.47
2022-11-16T07:58:10.990Z,24.83
2022-11-16T08:00:42.277Z,25.60
2022-11-16T08:03:12.439Z,25.13
2022-11-16T08:05:42.443Z,24.80
2022-11-16T08:08:14.214Z,24.80
2022-11-16T08:10:44.129Z,24.70
2022-11-16T08:13:17.009Z,26.37
2022-11-16T08:15:47.092Z,25.00
2022-11-16T08:18:16.818Z,26.13
2022-11-16T08:20:46.825Z,25.47
2022-11-16T08:23:18.413Z,24.23
2022-11-16T08:25:48.225Z,27.17
2022-11-16T08:28:20.803Z,26.67
2022-11-16T08:30:54.038Z,25.93
2022-11-16T08:33:25.291Z,24.50
2022-11-16T08:36:00.187Z,26.03
2022-11-16T08:38:35.592Z,26.37
2022-11-16T08:41:08.945Z,26.97
2022-11-16T08:43:42.609Z,26.47
2022-11-16T08:46:15.687Z,25.73
2022-11-16T08:48:48.230Z,25.67
2022-11-16T08:51:21.464Z,27.33
2022-11-16T08:53:58.631Z,27.13
2022-11-16T08:56:30.355Z,27.57
2022-11-16T08:59:03.908Z,26.50
2022-11-16T09:01:36.818Z,26.50
2022-11-16T09:04:10.300Z,27.00
2022-11-16T09:06:42.777Z,27.37
2022-11-16T09:09:19.334Z,27.97
2022-11-16T09:11:51.385Z,27.80
2022-11-16T09:14:22.354Z,26.93
2022-11-16T09:16:55.713Z,26.77
2022-11-16T09:19:28.806Z,27.10
2022-11-16T09:21:59.064Z,28.10
2022-11-16T09:24:31.011Z,25.87
2022-11-16T09:27:03.362Z,26.37
2022-11-16T09:29:33.482Z,27.00
2022-11-16T09:32:03.846Z,26.63
2022-11-16T09:34:36.077Z,27.23
2022-11-16T09:37:08.568Z,28.00
2022-11-16T09:39:44.644Z,26.37
2022-11-16T09:42:31.320Z,27.00
2022-11-16T09:45:05.103Z,25.83
2022-11-16T09:47:46.858Z,27.03
2022-11-16T09:50:32.459Z,26.50
2022-11-16T09:53:11.952Z,26.57
2022-11-16T09:55:49.751Z,25.00
2022-11-16T09:58:24.367Z,25.53
2022-11-16T10:01:01.841Z,25.67
2022-11-16T10:03:40.389Z,26.90
2022-11-16T10:06:18.295Z,27.00
2022-11-16T10:08:51.061Z,26.87
2022-11-16T10:11:54.980Z,27.17
2022-11-16T10:15:02.263Z,26.90
2022-11-16T10:17:43.757Z,25.53
2022-11-16T10:20:36.482Z,27.47
2022-11-16T10:23:18.199Z,26.70
2022-11-16T10:25:51.799Z,28.63
2022-11-16T10:28:42.726Z,29.07
2022-11-16T10:31:23.428Z,27.43
2022-11-16T10:34:00.043Z,26.97
2022-11-16T10:36:34.630Z,28.17
2022-11-16T10:39:12.058Z,27.73
2022-11-16T10:41:45.358Z,28.63
2022-11-16T10:44:27.148Z,27.47
2022-11-16T10:47:04.702Z,27.30
2022-11-16T10:49:40.233Z,27.40
2022-11-16T10:52:10.245Z,30.17
2022-11-16T10:54:44.032Z,29.47
2022-11-16T10:57:15.806Z,28.20
2022-11-16T10:59:53.739Z,28.40
2022-11-16T11:02:35.766Z,27.97
2022-11-16T11:05:09.744Z,28.37
2022-11-16T11:07:41.262Z,28.27
2022-11-16T11:10:28.661Z,27.40
2022-11-16T11:13:27.972Z,28.73
2022-11-16T11:16:17.745Z,29.23
2022-11-16T11:18:48.108Z,29.47
2022-11-16T11:21:22.142Z,28.10
2022-11-16T11:24:10.572Z,29.53
2022-11-16T11:26:55.766Z,28.30
2022-11-16T11:29:31.969Z,28.83
2022-11-16T11:32:07.105Z,28.23
2022-11-16T11:34:46.709Z,28.60
2022-11-16T11:37:21.665Z,29.23
2022-11-16T11:40:08.173Z,29.63
2022-11-16T11:42:42.589Z,29.10
2022-11-16T11:45:17.802Z,28.00
2022-11-16T11:47:59.201Z,28.20
2022-11-16T11:50:41.313Z,27.30
2022-11-16T11:53:20.749Z,27.47
2022-11-16T11:55:51.951Z,27.73
2022-11-16T11:58:23.246Z,27.93
2022-11-16T12:01:09.548Z,27.60
2022-11-16T12:04:00.240Z,26.77
2022-11-16T12:06:43.920Z,26.53
2022-11-16T12:09:31.261Z,26.70
2022-11-16T12:12:22.951Z,26.97
2022-11-16T12:15:05.052Z,27.73
2022-11-16T12:17:49.766Z,26.00
2022-11-16T12:20:38.441Z,28.13
2022-11-16T12:23:45.899Z,27.27
2022-11-16T12:26:23.772Z,27.17
2022-11-16T12:29:09.657Z,26.63
2022-11-16T12:32:02.338Z,26.37
2022-11-16T12:34:56.013Z,28.13
2022-11-16T12:37:37.327Z,27.27
2022-11-16T12:40:36.371Z,29.00
2022-11-16T12:43:19.382Z,27.23
2022-11-16T12:46:03.733Z,29.27
2022-11-16T12:48:53.278Z,29.40
2022-11-16T12:51:38.959Z,30.83
2022-11-16T12:54:35.343Z,30.20
2022-11-16T12:57:14.561Z,29.30
2022-11-16T12:59:58.156Z,30.03
2022-11-16T13:02:51.356Z,30.17
2022-11-16T13:05:34.239Z,30.73
2022-11-16T13:08:09.786Z,31.70
2022-11-16T13:10:46.706Z,31.77
2022-11-16T13:13:40.600Z,31.77
2022-11-16T13:16:11.831Z,31.90
2022-11-16T13:18:44.882Z,31.30
2022-11-16T13:21:30.870Z,31.90
2022-11-16T13:24:16.302Z,32.33
2022-11-16T13:26:56.604Z,31.60
2022-11-16T13:29:38.601Z,32.70
2022-11-16T13:32:16.179Z,31.30
2022-11-16T13:34:47.284Z,32.93
2022-11-16T13:37:44.697Z,32.23
2022-11-16T13:40:29.364Z,32.03
2022-11-16T13:43:25.093Z,29.93
2022-11-16T13:46:00.918Z,32.13
2022-11-16T13:48:38.238Z,32.00
2022-11-16T13:51:10.538Z,31.93
2022-11-16T13:56:50.772Z,31.40
2022-11-16T13:59:28.512Z,31.23
2022-11-16T14:02:03.075Z,31.57
2022-11-16T14:04:46.732Z,31.27
2022-11-16T14:07:41.931Z,29.13
2022-11-16T14:10:13.277Z,32.37
2022-11-16T14:12:54.252Z,31.30
2022-11-16T14:15:27.955Z,29.63
2022-11-16T14:17:59.920Z,30.53
2022-11-16T14:20:54.875Z,29.37
2022-11-16T14:23:37.693Z,28.40
2022-11-16T14:26:19.386Z,27.67
2022-11-16T14:29:17.906Z,29.43
2022-11-16T14:31:57.515Z,28.07
2022-11-16T14:34:35.048Z,28.47
2022-11-16T14:37:05.204Z,28.73
2022-11-16T14:39:40.722Z,29.73
2022-11-16T14:42:24.104Z,29.03
2022-11-16T14:45:03.298Z,28.13
2022-11-16T14:47:37.875Z,29.73
2022-11-16T14:50:23.606Z,29.97
2022-11-16T14:52:58.412Z,30.27
2022-11-16T14:55:36.131Z,30.57
2022-11-16T14:58:18.643Z,31.33
2022-11-16T15:00:56.519Z,30.60
2022-11-16T15:03:32.408Z,30.47
2022-11-16T15:06:04.132Z,30.43
2022-11-16T15:08:37.394Z,30.03
2022-11-16T15:11:10.341Z,31.23
2022-11-16T15:13:41.115Z,29.80
2022-11-16T15:16:18.095Z,30.67
2022-11-16T15:19:01.846Z,30.63
2022-11-16T15:21:31.859Z,29.43
2022-11-16T15:26:56.083Z,29.03
2022-11-16T15:29:29.681Z,29.37
2022-11-16T15:32:03.590Z,28.17
2022-11-16T15:34:35.837Z,28.07
2022-11-16T15:37:09.358Z,27.53
2022-11-16T15:39:39.375Z,27.03
2022-11-16T15:42:10.249Z,27.20
2022-11-16T15:44:43.175Z,27.50
2022-11-16T15:47:17.313Z,26.23
2022-11-16T15:49:55.233Z,27.37
2022-11-16T15:52:44.360Z,27.40
2022-11-16T15:55:32.141Z,26.43
2022-11-16T15:58:17.570Z,26.03
2022-11-16T16:00:50.572Z,27.47
2022-11-16T16:03:24.075Z,25.80
2022-11-16T16:05:57.901Z,26.43
2022-11-16T16:08:31.218Z,26.33
2022-11-16T16:11:06.812Z,25.90
2022-11-16T16:13:39.023Z,25.40
2022-11-16T16:16:25.349Z,23.47
2022-11-16T16:18:58.981Z,24.87
2022-11-16T16:21:45.189Z,23.77
2022-11-16T16:24:50.227Z,23.37
2022-11-16T16:27:24.124Z,21.50
2022-11-16T16:29:54.963Z,20.43
2022-11-16T16:32:27.960Z,20.50
2022-11-16T16:35:01.383Z,20.03
2022-11-16T16:37:34.948Z,20.57
2022-11-16T16:40:04.970Z,19.73
2022-11-16T16:42:35.086Z,16.93
2022-11-16T16:45:07.563Z,15.13
2022-11-16T16:47:37.578Z,15.60
2022-11-16T16:50:12.575Z,16.00
2022-11-16T16:52:49.701Z,15.60
2022-11-16T16:55:19.614Z,13.10
2022-11-16T16:57:49.835Z,13.47
2022-11-16T17:00:20.979Z,13.10
2022-11-16T17:02:52.720Z,12.73
2022-11-16T17:05:23.687Z,12.53
2022-11-16T17:07:57.068Z,13.17
2022-11-16T17:10:29.861Z,13.30
2022-11-16T17:13:03.658Z,13.00
2022-11-16T17:15:33.478Z,12.50
2022-11-16T17:18:03.600Z,12.63
2022-11-16T17:20:33.401Z,12.90
2022-11-16T17:23:05.060Z,12.63
2022-11-16T17:25:36.404Z,13.50
2022-11-16T17:28:06.938Z,13.00
2022-11-16T17:30:37.573Z,11.90
2022-11-16T17:33:07.385Z,12.47
2022-11-16T17:35:38.666Z,12.00
2022-11-16T17:38:12.232Z,12.30
2022-11-16T17:40:42.550Z,13.03
2022-11-16T17:43:15.025Z,12.73
2022-11-16T17:45:47.294Z,12.70
2022-11-16T17:48:17.527Z,12.80
2022-11-16T17:50:50.603Z,12.00
2022-11-16T17:53:27.227Z,12.20
2022-11-16T17:56:01.391Z,12.57
2022-11-16T17:58:32.942Z,13.20
2022-11-16T18:01:06.375Z,11.83
2022-11-16T18:03:39.823Z,11.83
2022-11-16T18:06:12.736Z,12.17
2022-11-16T18:08:47.550Z,11.93
2022-11-16T18:11:20.097Z,11.63
2022-11-16T18:13:53.473Z,11.70
2022-11-16T18:16:26.781Z,11.10
2022-11-16T18:18:59.844Z,10.43
2022-11-16T18:21:30.560Z,10.57
2022-11-16T18:24:06.315Z,11.70
2022-11-16T18:26:37.052Z,11.67
2022-11-16T18:29:15.463Z,11.30
2022-11-16T18:31:46.192Z,11.43
2022-11-16T18:34:19.884Z,11.53
2022-11-16T18:36:51.042Z,11.43
2022-11-16T18:39:23.209Z,11.63
2022-11-16T18:41:55.468Z,11.60
2022-11-16T18:44:26.113Z,12.00
2022-11-16T18:46:56.747Z,12.40
2022-11-16T18:49:27.450Z,10.97
2022-11-16T18:51:57.938Z,11.40
2022-11-16T18:54:32.194Z,11.87
2022-11-16T18:57:02.723Z,12.27
2022-11-16T18:59:33.108Z,12.03
2022-11-16T19:02:03.591Z,11.97
2022-11-16T19:04:34.002Z,12.07
2022-11-16T19:07:06.974Z,12.50
2022-11-16T19:09:45.747Z,12.30
2022-11-16T19:12:15.908Z,11.97
2022-11-16T19:14:46.765Z,12.47
2022-11-16T19:17:19.549Z,12.80
2022-11-16T19:19:50.035Z,13.17
2022-11-16T19:22:23.371Z,12.77
2022-11-16T19:25:04.549Z,12.07
2022-11-16T19:27:36.922Z,12.63
2022-11-16T19:30:09.642Z,13.40
2022-11-16T19:32:40.129Z,13.27
2022-11-16T19:35:12.338Z,14.23
2022-11-16T19:37:43.383Z,13.70
2022-11-16T19:40:17.859Z,14.57
2022-11-16T19:42:51.095Z,13.67
2022-11-16T19:45:24.183Z,14.83
2022-11-16T19:47:54.259Z,14.80
2022-11-16T19:50:26.323Z,14.67
2022-11-16T19:52:56.853Z,14.87
2022-11-16T19:55:28.761Z,14.37
2022-11-16T19:57:59.892Z,16.10
2022-11-16T20:00:30.196Z,15.37
2022-11-16T20:03:01.230Z,15.10
2022-11-16T20:05:33.857Z,14.63
2022-11-16T20:08:04.430Z,14.97
2022-11-16T20:10:36.138Z,13.87
2022-11-16T20:13:06.398Z,12.77
2022-11-16T20:15:36.682Z,13.87
2022-11-16T20:18:06.802Z,13.10
2022-11-16T20:20:37.278Z,12.97
2022-11-16T20:23:07.657Z,13.90
2022-11-16T20:25:43.252Z,13.60
2022-11-16T20:28:13.677Z,13.67
2022-11-16T20:30:49.422Z,14.17
2022-11-16T20:33:22.611Z,12.43
2022-11-16T20:35:52.453Z,11.97
2022-11-16T20:38:22.850Z,11.53
2022-11-16T20:40:54.876Z,10.53
2022-11-16T20:43:24.772Z,9.70
2022-11-16T20:45:55.631Z,9.67
2022-11-16T20:48:26.263Z,8.40
2022-11-16T20:50:57.243Z,8.40
2022-11-16T20:53:29.266Z,9.53
2022-11-16T20:56:03.109Z,8.10
2022-11-16T20:58:36.202Z,8.40
2022-11-16T21:01:08.590Z,7.90
2022-11-16T21:03:39.168Z,7.10
2022-11-16T21:06:10.721Z,7.33
2022-11-16T21:08:42.211Z,7.03
2022-11-16T21:11:17.830Z,6.90
2022-11-16T21:14:06.376Z,7.10
2022-11-16T21:16:45.642Z,7.40
2022-11-16T21:19:18.208Z,6.80
2022-11-16T21:21:50.286Z,6.50
2022-11-16T21:24:22.345Z,6.40
2022-11-16T21:26:55.817Z,7.17
2022-11-16T21:29:27.728Z,7.23
2022-11-16T21:32:00.182Z,7.23
2022-11-16T21:34:35.866Z,6.43
2022-11-16T21:37:09.033Z,6.10
2022-11-16T21:39:39.225Z,7.10
2022-11-16T21:42:10.976Z,5.77
2022-11-16T21:44:46.549Z,6.63
2022-11-16T21:47:20.965Z,6.43
2022-11-16T21:50:24.420Z,6.40
2022-11-16T21:52:41.766Z,7.03
2022-11-16T21:55:12.419Z,6.40
2022-11-16T21:57:48.971Z,6.80
2022-11-16T22:00:22.065Z,5.57
2022-11-16T22:02:52.404Z,6.23
2022-11-16T22:05:40.033Z,6.00
2022-11-16T22:08:14.863Z,6.07
2022-11-16T22:10:44.452Z,5.73
2022-11-16T22:13:20.987Z,5.90
2022-11-16T22:15:52.698Z,5.60
2022-11-16T22:18:22.630Z,5.97
2022-11-16T22:20:53.450Z,6.00
2022-11-16T22:23:26.067Z,6.40
2022-11-16T22:25:57.096Z,5.70
2022-11-16T22:28:30.973Z,5.53
2022-11-16T22:31:09.719Z,5.27
2022-11-16T22:33:40.155Z,5.93
2022-11-16T22:36:14.303Z,4.97
2022-11-16T22:38:58.593Z,5.27
2022-11-16T22:41:26.601Z,4.47
2022-11-16T22:43:56.163Z,4.73
2022-11-16T22:46:24.151Z,4.73
2022-11-16T22:48:52.303Z,4.30
2022-11-16T22:51:22.261Z,4.70
2022-11-16T22:53:54.068Z,4.57
2022-11-16T22:56:22.380Z,4.80
2022-11-16T22:58:50.544Z,4.67
2022-11-16T23:01:20.895Z,4.50
2022-11-16T23:03:49.569Z,4.33
2022-11-16T23:06:18.304Z,3.83
2022-11-16T23:08:46.325Z,4.37
2022-11-16T23:11:33.579Z,3.60
2022-11-16T23:14:19.614Z,3.80
2022-11-16T23:16:49.197Z,4.00
2022-11-16T23:19:36.656Z,4.00
2022-11-16T23:22:23.350Z,3.90
2022-11-16T23:25:09.243Z,3.50
2022-11-16T23:27:41.911Z,3.70
2022-11-16T23:30:13.055Z,3.80
2022-11-16T23:32:43.023Z,3.50
2022-11-16T23:35:12.576Z,4.00
2022-11-16T23:37:54.498Z,4.00
2022-11-16T23:40:24.504Z,3.63
2022-11-16T23:43:10.501Z,3.90
2022-11-16T23:45:38.911Z,3.63
2022-11-16T23:48:09.341Z,3.43
2022-11-16T23:50:37.638Z,3.80
2022-11-16T23:53:06.669Z,3.53
2022-11-16T23:55:35.741Z,3.60
2022-11-16T23:58:03.744Z,3.40
